Main page
METAR-TAF:

METAR-TAF

Airports :

Pohakuloa Training Area

Bradshaw, Hawaii, United States

latitude: 19-47N, longitude: 155-33W, elevation: 1887 m

Current weather observation

The report was made 15 minutes ago, at 17:55 UTC
Wind 8 kt from the East
Temperature 20°C
Humidity 40%
Pressure 1027 hPa
Visibility: 16.1 km
Clear sky

METAR: PHSF 211755Z AUTO 09008KT 10SM CLR 20/06 A3034 RMK AO2 SLP153 T01960056 10196 20096 50008 $

Time: 08:10 (18:10 UTC)


TAF: missing

Weather observations and forecasts of more than 4000 airports (METAR and TAF reports).

The available stations are represented by yellow and red dots on the map.

Hover mouse over dot to see the name of the station.

Then click to see weather observations and forecasts.

To change the map : click on the green buttons with a black cross to zoom in, on the green button with a dash to zoom out, or on the green arrows for adjacent maps.


METAR-TAF: